EHHW 192355Z AUTO 30009KT 9999 NSC 12/10 Q1020 EHHW 192325Z AUTO 30012KT 9999 NSC 12/10 Q1020 EHHW 192255Z AUTO 29013KT 9999 NSC 12/10 Q1019 EHHW 192225Z AUTO 29014KT 9999 FEW005/// 12/10 Q1019 EHHW 192155Z AUTO 29015KT 9999 FEW004/// SCT006/// BKN007/// 12/11 Q1019 EHHW 192125Z AUTO 29014KT 9999 SCT005/// SCT006/// 12/11 Q1019 EHHW 192055Z AUTO 29012KT 9999 FEW006/// 12/11 Q1018 EHHW 192025Z AUTO 30013KT 9999 FEW006/// 12/11 Q1018 EHHW 191955Z AUTO 30015KT 9999 FEW001/// SCT003/// 12/11 Q1018 EHHW 191925Z AUTO 29014KT 9999 FEW001/// SCT003/// BKN004/// 12/11 Q1018 EHHW 191855Z AUTO 27009KT 9999 FEW002/// SCT003/// BKN033/// 13/12 Q1017 EHHW 191825Z AUTO 27009KT 9999 SCT002/// BKN003/// BKN004/// 13/12 Q1017 EHHW 191755Z AUTO 26012KT 9000 FEW000/// SCT003/// BKN006/// 14/12 Q1017 EHHW 191725Z AUTO 26009KT 4700 BR FEW000/// SCT002/// BKN004/// 14/13 Q1017 EHHW 191655Z AUTO 25013KT 9999 FEW002/// SCT004/// BKN008/// 15/14 Q1017 EHHW 191625Z AUTO 23006KT 210V280 9999 FEW010/// SCT015/// BKN031/// 15/14 Q1016 EHHW 191555Z AUTO 21008KT 9999 FEW025/// SCT040/// 15/14 Q1016 EHHW 191525Z AUTO 19007KT 9999 NSC 15/14 Q1016 EHHW 191455Z AUTO 21004KT 9999 FEW001/// 15/14 Q1016 REDZ EHHW 191425Z AUTO 18006KT 160V220 9000 -RA NSC 15/14 Q1016 RERA REDZ EHHW 191355Z AUTO 21012KT 7000 +DZRA FEW000/// 15/14 Q1017 EHHW 191325Z AUTO 19010KT 160V220 7000 -RA FEW000/// 14/13 Q1017 RERA REDZ EHHW 191255Z AUTO 17015KT 9999 -RA FEW035/// 14/12 Q1018 RERA REDZ EHHW 191225Z AUTO 18009KT 9999 FEW037/// 14/12 Q1017 EHHW 191155Z AUTO 16006KT 120V180 9999 NSC 13/12 Q1017 EHHW 191125Z AUTO 11009KT 060V180 9999 NSC 13/11 Q1016 EHHW 191055Z AUTO 10009KT 070V140 9999 NSC 13/11 Q1015 EHHW 191025Z AUTO 11009KT 060V140 9999 NSC 13/12 Q1016 EHHW 190955Z AUTO 12008KT 070V180 9999 NSC 14/12 Q1017 EHHW 190925Z AUTO 10011KT 070V130 9999 NSC 14/12 Q1016 EHHW 190855Z AUTO 09013KT 070V130 9000 NSC 13/12 Q1017 EHHW 190825Z AUTO 07016KT 030V110 9999 FEW002/// 13/11 Q1016 EHHW 190755Z AUTO 05014KT 9999 -DZ FEW001/// SCT010/// 13/12 Q1017 EHHW 190725Z AUTO 05010KT 9999 -RADZ FEW000/// SCT002/// BKN005/// 13/11 Q1017 EHHW 190655Z AUTO 04011KT 9999 -RA FEW000/// OVC004/// 14/12 Q1017 EHHW 190625Z AUTO 01005KT 340V080 9999 -SHRA FEW000/// SCT004/// BKN014/// 14/12 Q1018 RERA EHHW 190555Z AUTO 26006KT 190V300 9999 FEW008/// BKN034/// BKN043/// 15/11 Q1019 EHHW 190525Z AUTO VRB13G39KT 9999 FEW008/// 15/12 Q1018 EHHW 190455Z AUTO 14015KT 100V180 9999 NSC 14/11 Q1016 EHHW 190425Z AUTO 15009KT 090V200 9999 NSC 15/12 Q1016 EHHW 190355Z AUTO 14012KT 070V190 9999 NSC 16/11 Q1016 EHHW 190325Z AUTO 13009KT 070V190 9999 NSC 15/12 Q1016 EHHW 190255Z AUTO 13011KT 080V170 9999 NSC 14/11 Q1016 EHHW 190225Z AUTO 12008KT 090V170 9999 NSC 14/12 Q1017 EHHW 190155Z AUTO 13006KT 100V170 9999 NSC 14/11 Q1017 EHHW 190125Z AUTO 14010KT 9999 NSC 13/11 Q1018 EHHW 190055Z AUTO 13009KT 9999 NSC 13/12 Q1018 EHHW 190025Z AUTO 11006KT 9999 NSC 13/11 Q1018 EHHW 182355Z AUTO 07002KT 9999 NSC 13/11 Q1018 EHHW 182325Z AUTO VRB01KT 9999 NSC 12/11 Q1019 EHHW 182255Z AUTO VRB01KT 9999 NSC 12/12 Q1019 EHHW 182225Z AUTO VRB01KT 9999 NSC 13/11 Q1019 EHHW 182155Z AUTO VRB02KT 9999 NSC 13/11 Q1020 EHHW 182125Z AUTO 12002KT 9999 NSC 13/11 Q1020 EHHW 182055Z AUTO VRB02KT 9999 NSC 13/11 Q1020 EHHW 182025Z AUTO 10002KT 9999 NSC 13/12 Q1020 EHHW 181955Z AUTO VRB01KT 9999 NSC 13/12 Q1020 EHHW 181925Z AUTO 36004KT 9999 NSC 13/12 Q1020 EHHW 181855Z AUTO 35005KT 9999 NSC 13/12 Q1020 EHHW 181825Z AUTO 35007KT 9999 NSC 13/11 Q1020 EHHW 181755Z AUTO 33005KT 9999 NSC 14/12 Q1020 EHHW 181725Z AUTO 33005KT 9999 NSC 14/12 Q1020 EHHW 181655Z AUTO 32005KT 9999 NSC 14/12 Q1020 EHHW 181625Z AUTO 31005KT 9999 NSC 13/12 Q1020 EHHW 181555Z AUTO 32005KT 9999 NSC 14/12 Q1020 EHHW 181525Z AUTO 33004KT 9999 NSC 14/12 Q1020 EHHW 181455Z AUTO 32004KT 9999 NSC 14/12 Q1021 EHHW 181425Z AUTO 31006KT 9999 NSC 14/12 Q1021 EHHW 181355Z AUTO 33006KT 9999 NSC 14/12 Q1021 EHHW 181325Z AUTO 32006KT 9999 NSC 14/12 Q1020 EHHW 181255Z AUTO 32008KT 9999 NSC 14/12 Q1020 EHHW 181225Z AUTO 31008KT 9999 NSC 14/12 Q1020

METAR Messwerte "BUITENGAATS" EHHW

Zurück zur Übersicht

Ortsname
Ländercode / m ü. NN
Zeit Temperatur Taupunkt Rel.
Luftfeuchte
Luftdruck:
Altimeter
NN
Station
Wind in Beaufort
(Knoten)
Sichtweite
(Meter)
Wolken
(Meter über Grund)
Wettererscheinung
BUITENGAATS
NL 10
Fr 20.05. 01:55121088 %1020
1020
1019
WNW 3 (9)>= 10000Nicht signifikant 
BUITENGAATS
NL 10
Fr 20.05. 01:25121088 %1020
1020
1019
WNW 4 (12)>= 10000Nicht signifikant 
BUITENGAATS
NL 10
Fr 20.05. 00:55121088 %1019
1019
1018
WNW 4 (13)>= 10000Nicht signifikant 
BUITENGAATS
NL 10
Fr 20.05. 00:25121088 %1019
1019
1018
WNW 4 (14)>= 10000Leicht bewölkt (150) 
BUITENGAATS
NL 10
Do 19.05. 23:55121194 %1019
1019
1018
WNW 4 (15)>= 10000Stark bewölkt (210)
Wolkig (180)
Leicht bewölkt (120)
 
BUITENGAATS
NL 10
Do 19.05. 23:25121194 %1019
1019
1018
WNW 4 (14)>= 10000Wolkig (180)
Wolkig (150)
 
BUITENGAATS
NL 10
Do 19.05. 22:55121194 %1018
1018
1017
WNW 4 (12)>= 10000Leicht bewölkt (180) 
BUITENGAATS
NL 10
Do 19.05. 22:25121194 %1018
1018
1017
WNW 4 (13)>= 10000Leicht bewölkt (180) 
BUITENGAATS
NL 10
Do 19.05. 21:55121194 %1018
1018
1017
WNW 4 (15)>= 10000Wolkig (91)
Leicht bewölkt (30)
 
BUITENGAATS
NL 10
Do 19.05. 21:25121194 %1018
1018
1017
WNW 4 (14)>= 10000Stark bewölkt (120)
Wolkig (91)
Leicht bewölkt (30)
 
BUITENGAATS
NL 10
Do 19.05. 20:55131294 %1017
1017
1016
W 3 (9)>= 10000Stark bewölkt (1000)
Wolkig (91)
Leicht bewölkt (61)
 
BUITENGAATS
NL 10
Do 19.05. 20:25131294 %1017
1017
1016
W 3 (9)>= 10000Stark bewölkt (120)
Stark bewölkt (91)
Wolkig (61)
 
BUITENGAATS
NL 10
Do 19.05. 19:55141288 %1017
1017
1016
W 4 (12)9000Stark bewölkt (180)
Wolkig (91)
Leicht bewölkt (0)
 
BUITENGAATS
NL 10
Do 19.05. 19:25141394 %1017
1017
1016
W 3 (9)4700Stark bewölkt (120)
Wolkig (61)
Leicht bewölkt (0)
Nebeldunst
BUITENGAATS
NL 10
Do 19.05. 18:55151494 %1017
1017
1016
WSW 4 (13)>= 10000Stark bewölkt (240)
Wolkig (120)
Leicht bewölkt (61)
 
BUITENGAATS
NL 10
Do 19.05. 18:25151494 %1016
1016
1015
SW 2 (6)
SSW - W
>= 10000Stark bewölkt (940)
Wolkig (460)
Leicht bewölkt (300)
 
BUITENGAATS
NL 10
Do 19.05. 17:55151494 %1016
1016
1015
SSW 3 (8)>= 10000Wolkig (1200)
Leicht bewölkt (760)
 
BUITENGAATS
NL 10
Do 19.05. 17:25151494 %1016
1016
1015
S 3 (7)>= 10000Nicht signifikant 
BUITENGAATS
NL 10
Do 19.05. 16:55151494 %1016
1016
1015
SSW 2 (4)>= 10000Leicht bewölkt (30) 
BUITENGAATS
NL 10
Do 19.05. 16:25151494 %1016
1016
1015
S 2 (6)
SSO - SW
9000Nicht signifikantRegen (schwach)
BUITENGAATS
NL 10
Do 19.05. 15:55151494 %1017
1017
1016
SSW 4 (12)7000Leicht bewölkt (0)Nieselregen/Regen (stark)
BUITENGAATS
NL 10
Do 19.05. 15:25141394 %1017
1017
1016
S 3 (10)
SSO - SW
7000Leicht bewölkt (0)Regen (schwach)
BUITENGAATS
NL 10
Do 19.05. 14:55141288 %1018
1018
1017
S 4 (15)>= 10000Leicht bewölkt (1100)Regen (schwach)
BUITENGAATS
NL 10
Do 19.05. 14:25141288 %1017
1017
1016
S 3 (9)>= 10000Leicht bewölkt (1100) 
BUITENGAATS
NL 10
Do 19.05. 13:55131294 %1017
1017
1016
SSO 2 (6)
OSO - S
>= 10000Nicht signifikant 
BUITENGAATS
NL 10
Do 19.05. 13:25131188 %1016
1016
1015
OSO 3 (9)
ONO - S
>= 10000Nicht signifikant 
BUITENGAATS
NL 10
Do 19.05. 12:55131188 %1015
1015
1014
O 3 (9)
ONO - SO
>= 10000Nicht signifikant 
BUITENGAATS
NL 10
Do 19.05. 12:25131294 %1016
1016
1015
OSO 3 (9)
ONO - SO
>= 10000Nicht signifikant 
BUITENGAATS
NL 10
Do 19.05. 11:55141288 %1017
1017
1016
OSO 3 (8)
ONO - S
>= 10000Nicht signifikant 
BUITENGAATS
NL 10
Do 19.05. 11:25141288 %1016
1016
1015
O 4 (11)
ONO - SO
>= 10000Nicht signifikant 
BUITENGAATS
NL 10
Do 19.05. 10:55131294 %1017
1017
1016
O 4 (13)
ONO - SO
9000Nicht signifikant 
BUITENGAATS
NL 10
Do 19.05. 10:25131188 %1016
1016
1015
ONO 5 (16)
NNO - OSO
>= 10000Leicht bewölkt (61) 
BUITENGAATS
NL 10
Do 19.05. 09:55131294 %1017
1017
1016
NO 4 (14)>= 10000Wolkig (300)
Leicht bewölkt (30)
Nieselregen (schwach)
BUITENGAATS
NL 10
Do 19.05. 09:25131188 %1017
1017
1016
NO 3 (10)>= 10000Stark bewölkt (150)
Wolkig (61)
Leicht bewölkt (0)
Regen/Nieselregen (schwach)
BUITENGAATS
NL 10
Do 19.05. 08:55141288 %1017
1017
1016
NO 4 (11)>= 10000Bedeckt (120)
Leicht bewölkt (0)
Regen (schwach)
BUITENGAATS
NL 10
Do 19.05. 08:25141288 %1018
1018
1017
N 2 (5)
NNW - O
>= 10000Stark bewölkt (430)
Wolkig (120)
Leicht bewölkt (0)
Regen-Schauer (schwach)
BUITENGAATS
NL 10
Do 19.05. 07:55151177 %1019
1019
1018
W 2 (6)
S - WNW
>= 10000Stark bewölkt (1300)
Stark bewölkt (1000)
Leicht bewölkt (240)
 
BUITENGAATS
NL 10
Do 19.05. 07:25151282 %1018
1018
1017
Uml 4 (13) - 8 (39)>= 10000Leicht bewölkt (240) 
BUITENGAATS
NL 10
Do 19.05. 06:55141182 %1016
1016
1015
SO 4 (15)
O - S
>= 10000Nicht signifikant 
BUITENGAATS
NL 10
Do 19.05. 06:25151282 %1016
1016
1015
SSO 3 (9)
O - SSW
>= 10000Nicht signifikant 
BUITENGAATS
NL 10
Do 19.05. 05:55161172 %1016
1016
1015
SO 4 (12)
ONO - S
>= 10000Nicht signifikant 
BUITENGAATS
NL 10
Do 19.05. 05:25151282 %1016
1016
1015
SO 3 (9)
ONO - S
>= 10000Nicht signifikant 
BUITENGAATS
NL 10
Do 19.05. 04:55141182 %1016
1016
1015
SO 4 (11)
O - S
>= 10000Nicht signifikant 
BUITENGAATS
NL 10
Do 19.05. 04:25141288 %1017
1017
1016
OSO 3 (8)
O - S
>= 10000Nicht signifikant 
BUITENGAATS
NL 10
Do 19.05. 03:55141182 %1017
1017
1016
SO 2 (6)
O - S
>= 10000Nicht signifikant 
BUITENGAATS
NL 10
Do 19.05. 03:25131188 %1018
1018
1017
SO 3 (10)>= 10000Nicht signifikant 
BUITENGAATS
NL 10
Do 19.05. 02:55131294 %1018
1018
1017
SO 3 (9)>= 10000Nicht signifikant 
BUITENGAATS
NL 10
Do 19.05. 02:25131188 %1018
1018
1017
OSO 2 (6)>= 10000Nicht signifikant 
BUITENGAATS
NL 10
Do 19.05. 01:55131188 %1018
1018
1017
ONO 1 (2)>= 10000Nicht signifikant 
BUITENGAATS
NL 10
Do 19.05. 01:25121194 %1019
1019
1018
Uml 1 (1)>= 10000Nicht signifikant 
BUITENGAATS
NL 10
Do 19.05. 00:551212100 %1019
1019
1018
Uml 1 (1)>= 10000Nicht signifikant 
BUITENGAATS
NL 10
Do 19.05. 00:25131188 %1019
1019
1018
Uml 1 (1)>= 10000Nicht signifikant 
BUITENGAATS
NL 10
Mi 18.05. 23:55131188 %1020
1020
1019
Uml 1 (2)>= 10000Nicht signifikant 
BUITENGAATS
NL 10
Mi 18.05. 23:25131188 %1020
1020
1019
OSO 1 (2)>= 10000Nicht signifikant 
BUITENGAATS
NL 10
Mi 18.05. 22:55131188 %1020
1020
1019
Uml 1 (2)>= 10000Nicht signifikant 
BUITENGAATS
NL 10
Mi 18.05. 22:25131294 %1020
1020
1019
O 1 (2)>= 10000Nicht signifikant 
BUITENGAATS
NL 10
Mi 18.05. 21:55131294 %1020
1020
1019
Uml 1 (1)>= 10000Nicht signifikant 
BUITENGAATS
NL 10
Mi 18.05. 21:25131294 %1020
1020
1019
N 2 (4)>= 10000Nicht signifikant 
BUITENGAATS
NL 10
Mi 18.05. 20:55131294 %1020
1020
1019
N 2 (5)>= 10000Nicht signifikant 
BUITENGAATS
NL 10
Mi 18.05. 20:25131188 %1020
1020
1019
N 3 (7)>= 10000Nicht signifikant 
BUITENGAATS
NL 10
Mi 18.05. 19:55141288 %1020
1020
1019
NNW 2 (5)>= 10000Nicht signifikant 
BUITENGAATS
NL 10
Mi 18.05. 19:25141288 %1020
1020
1019
NNW 2 (5)>= 10000Nicht signifikant 
BUITENGAATS
NL 10
Mi 18.05. 18:55141288 %1020
1020
1019
NW 2 (5)>= 10000Nicht signifikant 
BUITENGAATS
NL 10
Mi 18.05. 18:25131294 %1020
1020
1019
NW 2 (5)>= 10000Nicht signifikant 
BUITENGAATS
NL 10
Mi 18.05. 17:55141288 %1020
1020
1019
NW 2 (5)>= 10000Nicht signifikant 
BUITENGAATS
NL 10
Mi 18.05. 17:25141288 %1020
1020
1019
NNW 2 (4)>= 10000Nicht signifikant 
BUITENGAATS
NL 10
Mi 18.05. 16:55141288 %1021
1021
1020
NW 2 (4)>= 10000Nicht signifikant 
BUITENGAATS
NL 10
Mi 18.05. 16:25141288 %1021
1021
1020
NW 2 (6)>= 10000Nicht signifikant 
BUITENGAATS
NL 10
Mi 18.05. 15:55141288 %1021
1021
1020
NNW 2 (6)>= 10000Nicht signifikant 
BUITENGAATS
NL 10
Mi 18.05. 15:25141288 %1020
1020
1019
NW 2 (6)>= 10000Nicht signifikant 
BUITENGAATS
NL 10
Mi 18.05. 14:55141288 %1020
1020
1019
NW 3 (8)>= 10000Nicht signifikant 
BUITENGAATS
NL 10
Mi 18.05. 14:25141288 %1020
1020
1019
NW 3 (8)>= 10000Nicht signifikant 

Altimeter: Einstellung am Altimeter (Höhenmesser), die Höhe 0 muss auf diesen Luftdruckwert zeigen, damit das Gerät die Stationshöhe richtig anzeigt.

NN: Luftdruck reduziert auf "Normal Null", auf Meereshöhe, dieser von der Temperatur abhängige Wert wird bisweilen unkorrekt einfach als "Luftdruck" bezeichnet. Eigentlich nur eine fiktive Größe, die es erlaubt, Stationen auf unterschiedlichen Höhen miteinander zu vergleichen.

Station: Realer Luftdruck an der Station.